createdAt,value
2022-08-08T00:01:16.915Z,16.76
2022-08-08T00:03:56.027Z,16.70
2022-08-08T00:06:37.673Z,16.64
2022-08-08T00:09:16.055Z,16.60
2022-08-08T00:12:09.391Z,16.58
2022-08-08T00:14:57.293Z,16.61
2022-08-08T00:18:02.539Z,16.59
2022-08-08T00:20:36.300Z,16.61
2022-08-08T00:23:09.005Z,16.59
2022-08-08T00:25:46.640Z,16.54
2022-08-08T00:28:35.418Z,16.51
2022-08-08T00:32:28.339Z,16.53
2022-08-08T00:34:27.916Z,16.36
2022-08-08T00:37:03.546Z,16.30
2022-08-08T00:41:07.631Z,16.24
2022-08-08T00:43:11.771Z,16.13
2022-08-08T00:45:59.250Z,16.06
2022-08-08T00:49:01.102Z,16.04
2022-08-08T00:52:05.823Z,16.03
2022-08-08T00:54:51.416Z,16.02
2022-08-08T00:57:57.057Z,15.95
2022-08-08T01:00:32.157Z,15.89
2022-08-08T01:04:00.978Z,15.83
2022-08-08T01:07:20.791Z,15.81
2022-08-08T01:10:36.897Z,15.73
2022-08-08T01:13:45.899Z,15.69
2022-08-08T01:16:49.762Z,15.62
2022-08-08T01:20:02.959Z,15.62
2022-08-08T01:24:05.747Z,15.63
2022-08-08T01:26:21.036Z,15.49
2022-08-08T01:29:35.608Z,15.38
2022-08-08T01:32:54.393Z,15.21
2022-08-08T01:35:53.691Z,15.20
2022-08-08T01:38:56.712Z,15.21
2022-08-08T01:41:39.071Z,15.17
2022-08-08T01:44:26.625Z,15.09
2022-08-08T01:48:14.178Z,15.07
2022-08-08T01:50:09.816Z,15.06
2022-08-08T01:54:11.330Z,15.07
2022-08-08T01:56:28.262Z,15.04
2022-08-08T01:58:47.189Z,14.99
2022-08-08T02:02:00.260Z,14.96
2022-08-08T02:04:34.467Z,14.89
2022-08-08T02:07:07.507Z,14.79
2022-08-08T02:10:37.357Z,14.76
2022-08-08T02:13:54.162Z,14.76
2022-08-08T02:16:29.679Z,14.74
2022-08-08T02:19:41.560Z,14.75
2022-08-08T02:22:20.481Z,14.75
2022-08-08T02:25:00.447Z,14.74
2022-08-08T02:27:42.655Z,14.66
2022-08-08T02:30:24.814Z,14.59
2022-08-08T02:33:14.119Z,14.52
2022-08-08T02:36:27.205Z,14.49
2022-08-08T02:39:41.177Z,14.45
2022-08-08T02:42:38.170Z,14.45
2022-08-08T02:45:51.261Z,14.50
2022-08-08T02:48:54.436Z,14.43
2022-08-08T02:52:32.646Z,14.34
2022-08-08T02:55:21.852Z,14.28
2022-08-08T02:58:27.763Z,14.29
2022-08-08T03:01:47.302Z,14.13
2022-08-08T03:05:03.590Z,14.02
2022-08-08T03:08:31.135Z,13.97
2022-08-08T03:12:01.617Z,13.93
2022-08-08T03:16:02.089Z,13.90
2022-08-08T03:17:52.098Z,13.81
2022-08-08T03:20:27.906Z,13.75
2022-08-08T03:23:00.644Z,13.72
2022-08-08T03:25:34.186Z,13.67
2022-08-08T03:28:08.355Z,13.68
2022-08-08T03:30:37.737Z,13.65
2022-08-08T03:33:54.826Z,13.70
2022-08-08T03:36:19.477Z,13.71
2022-08-08T03:38:54.903Z,13.66
2022-08-08T03:42:28.642Z,13.65
2022-08-08T03:44:25.939Z,13.58
2022-08-08T03:46:55.341Z,13.57
2022-08-08T03:49:58.196Z,13.59
2022-08-08T03:52:16.063Z,13.61
2022-08-08T03:55:01.636Z,13.60
2022-08-08T03:58:31.899Z,13.58
2022-08-08T04:00:26.206Z,13.58
2022-08-08T04:03:02.065Z,13.52
2022-08-08T04:05:35.314Z,13.50
2022-08-08T04:08:33.879Z,13.50
2022-08-08T04:11:10.689Z,13.48
2022-08-08T04:14:03.043Z,13.49
2022-08-08T04:16:38.929Z,13.50
2022-08-08T04:19:23.659Z,13.46
2022-08-08T04:21:56.927Z,13.38
2022-08-08T04:24:30.547Z,13.37
2022-08-08T04:27:02.705Z,13.44
2022-08-08T04:29:37.344Z,13.45
2022-08-08T04:32:10.650Z,13.43
2022-08-08T04:34:49.362Z,13.50
2022-08-08T04:37:31.915Z,13.34
2022-08-08T04:40:07.829Z,13.49
2022-08-08T04:42:56.660Z,13.69
2022-08-08T04:45:29.378Z,13.86
2022-08-08T04:48:00.845Z,13.91
2022-08-08T04:50:38.314Z,14.07
2022-08-08T04:53:52.625Z,14.24
2022-08-08T04:56:01.296Z,14.31
2022-08-08T04:58:34.542Z,14.35
2022-08-08T05:01:08.741Z,14.44
2022-08-08T05:04:11.281Z,14.54
2022-08-08T05:06:29.573Z,14.50
2022-08-08T05:09:02.463Z,14.66
2022-08-08T05:11:39.686Z,14.80
2022-08-08T05:14:14.065Z,15.07
2022-08-08T05:16:52.273Z,15.26
2022-08-08T05:20:12.959Z,15.39
2022-08-08T05:22:19.309Z,15.56
2022-08-08T05:24:50.358Z,15.79
2022-08-08T05:27:22.123Z,16.14
2022-08-08T05:29:54.932Z,16.50
2022-08-08T05:32:36.354Z,16.80
2022-08-08T05:35:07.531Z,17.00
2022-08-08T05:37:52.160Z,17.38
2022-08-08T05:40:27.975Z,17.29
2022-08-08T05:43:15.469Z,17.42
2022-08-08T05:46:03.076Z,17.37
2022-08-08T05:48:35.993Z,17.71
2022-08-08T05:51:14.311Z,17.93
2022-08-08T05:54:25.285Z,18.57
2022-08-08T05:56:42.503Z,18.25
2022-08-08T05:59:59.303Z,18.26
2022-08-08T06:02:34.420Z,18.80
2022-08-08T06:05:24.356Z,19.05
2022-08-08T06:08:02.339Z,19.35
2022-08-08T06:10:40.909Z,19.68
2022-08-08T06:13:12.452Z,19.72
2022-08-08T06:15:53.316Z,19.43
2022-08-08T06:18:36.353Z,19.31
2022-08-08T06:21:27.951Z,19.55
2022-08-08T06:24:02.594Z,20.21
2022-08-08T06:26:45.603Z,21.02
2022-08-08T06:29:59.284Z,21.34
2022-08-08T06:32:26.520Z,21.81
2022-08-08T06:35:30.752Z,21.93
2022-08-08T06:37:56.059Z,22.09
2022-08-08T06:40:31.955Z,22.49
2022-08-08T06:43:05.426Z,22.75
2022-08-08T06:45:41.721Z,22.60
2022-08-08T06:48:10.500Z,23.15
2022-08-08T06:50:42.647Z,23.90
2022-08-08T06:53:17.236Z,23.71
2022-08-08T06:56:02.571Z,23.98
2022-08-08T06:58:34.623Z,24.34
2022-08-08T07:01:24.489Z,24.89
2022-08-08T07:04:39.701Z,24.88
2022-08-08T07:06:57.484Z,24.30
2022-08-08T07:09:45.717Z,24.06
2022-08-08T07:12:33.609Z,24.78
2022-08-08T07:15:06.758Z,25.13
2022-08-08T07:18:00.884Z,24.85
2022-08-08T07:20:40.515Z,25.74
2022-08-08T07:23:24.543Z,25.27
2022-08-08T07:26:00.609Z,25.17
2022-08-08T07:28:31.653Z,25.91
2022-08-08T07:31:06.689Z,25.40
2022-08-08T07:33:58.872Z,26.05
2022-08-08T07:36:29.054Z,26.33
2022-08-08T07:39:03.186Z,25.81
2022-08-08T07:41:58.844Z,26.61
2022-08-08T07:44:37.673Z,27.39
2022-08-08T07:47:11.189Z,26.92
2022-08-08T07:49:40.669Z,26.92
2022-08-08T07:52:22.472Z,27.32
2022-08-08T07:55:03.842Z,27.37
2022-08-08T07:57:48.591Z,26.45
2022-08-08T08:00:19.383Z,27.70
2022-08-08T08:03:10.974Z,28.97
2022-08-08T08:05:50.636Z,28.67
2022-08-08T08:08:26.493Z,27.88
2022-08-08T08:10:58.114Z,27.81
2022-08-08T08:13:43.112Z,28.37
2022-08-08T08:16:27.819Z,29.83
2022-08-08T08:19:04.540Z,30.82
2022-08-08T08:21:52.304Z,30.05
2022-08-08T08:24:46.575Z,31.08
2022-08-08T08:27:19.840Z,30.88
2022-08-08T08:29:51.987Z,30.27
2022-08-08T08:32:31.860Z,30.28
2022-08-08T08:35:09.132Z,30.58
2022-08-08T08:38:13.265Z,29.88
2022-08-08T08:40:29.312Z,30.74
2022-08-08T08:43:02.807Z,31.70
2022-08-08T08:45:32.605Z,31.45
2022-08-08T08:48:04.193Z,31.56
2022-08-08T08:50:40.970Z,31.23
2022-08-08T08:53:27.833Z,29.78
2022-08-08T08:56:12.324Z,30.98
2022-08-08T08:58:50.320Z,31.31
2022-08-08T09:01:35.148Z,30.58
2022-08-08T09:04:10.233Z,31.17
2022-08-08T09:06:59.801Z,31.82
2022-08-08T09:09:47.465Z,32.61
2022-08-08T09:12:24.026Z,31.56
2022-08-08T09:14:56.308Z,32.88
2022-08-08T09:17:41.312Z,31.98
2022-08-08T09:22:02.440Z,32.22
2022-08-08T09:23:10.448Z,31.93
2022-08-08T09:25:54.479Z,32.41
2022-08-08T09:28:37.681Z,33.02
2022-08-08T09:31:15.482Z,33.29
2022-08-08T09:34:14.817Z,33.18
2022-08-08T09:36:51.710Z,32.93
2022-08-08T09:39:48.675Z,33.16
2022-08-08T09:42:26.014Z,33.19
2022-08-08T09:45:15.336Z,34.48
2022-08-08T09:48:11.405Z,35.39
2022-08-08T09:50:34.706Z,34.74
2022-08-08T09:53:14.366Z,35.39
2022-08-08T09:56:05.747Z,34.86
2022-08-08T09:58:41.406Z,33.76
2022-08-08T10:01:14.459Z,33.88
2022-08-08T10:03:55.981Z,33.75
2022-08-08T10:06:26.874Z,33.84
2022-08-08T10:08:57.921Z,34.34
2022-08-08T10:12:25.775Z,34.94
2022-08-08T10:14:28.201Z,35.63
2022-08-08T10:17:38.788Z,35.44
2022-08-08T10:20:00.174Z,34.42
2022-08-08T10:22:29.972Z,34.42
2022-08-08T10:25:04.737Z,34.85
2022-08-08T10:27:42.974Z,35.55
2022-08-08T10:30:16.191Z,36.15
2022-08-08T10:33:01.803Z,36.57
2022-08-08T10:36:07.495Z,35.75
2022-08-08T10:38:21.333Z,35.75
2022-08-08T10:40:53.945Z,36.14
2022-08-08T10:43:23.190Z,36.89
2022-08-08T10:45:55.745Z,35.60
2022-08-08T10:48:38.716Z,35.04
2022-08-08T10:51:24.249Z,35.70
2022-08-08T10:53:57.917Z,35.65
2022-08-08T10:56:32.419Z,35.99
2022-08-08T10:59:06.220Z,35.57
2022-08-08T11:01:35.034Z,34.91
2022-08-08T11:04:04.670Z,35.70
2022-08-08T11:06:36.357Z,35.62
2022-08-08T11:09:20.094Z,35.18
2022-08-08T11:12:06.527Z,35.39
2022-08-08T11:14:56.800Z,34.92
2022-08-08T11:17:59.316Z,34.77
2022-08-08T11:20:18.178Z,35.31
2022-08-08T11:22:52.066Z,35.63
2022-08-08T11:25:53.184Z,36.33
2022-08-08T11:28:14.485Z,36.81
2022-08-08T11:30:50.511Z,36.90
2022-08-08T11:33:51.331Z,35.56
2022-08-08T11:36:14.128Z,35.95
2022-08-08T11:38:54.750Z,35.92
2022-08-08T11:41:25.029Z,35.37
2022-08-08T11:43:57.709Z,36.57
2022-08-08T11:46:28.090Z,35.59
2022-08-08T11:48:59.553Z,35.42
2022-08-08T11:51:38.245Z,34.42
2022-08-08T11:54:31.123Z,34.66
2022-08-08T11:57:14.196Z,35.23
2022-08-08T12:00:00.554Z,36.57
2022-08-08T12:02:47.296Z,35.31
2022-08-08T12:05:16.174Z,35.97
2022-08-08T12:07:50.954Z,35.61
2022-08-08T12:10:23.061Z,35.74
2022-08-08T12:13:00.617Z,35.74
2022-08-08T12:15:30.522Z,35.34
2022-08-08T12:18:15.189Z,34.86
2022-08-08T12:20:46.031Z,35.39
2022-08-08T12:23:30.668Z,36.25
2022-08-08T12:26:17.446Z,35.89
2022-08-08T12:28:57.255Z,36.04
2022-08-08T12:31:39.020Z,35.95
2022-08-08T12:34:36.255Z,34.87
2022-08-08T12:37:08.349Z,35.83
2022-08-08T12:40:00.431Z,35.32
2022-08-08T12:42:26.527Z,35.52
2022-08-08T12:45:20.257Z,34.98
2022-08-08T12:48:09.758Z,35.51
2022-08-08T12:50:48.191Z,35.56
2022-08-08T12:53:21.548Z,36.63
2022-08-08T12:56:19.546Z,35.56
2022-08-08T12:58:54.250Z,34.97
2022-08-08T13:01:36.578Z,35.92
2022-08-08T13:04:18.664Z,35.50
2022-08-08T13:07:01.179Z,34.39
2022-08-08T13:10:00.597Z,34.67
2022-08-08T13:12:29.464Z,34.92
2022-08-08T13:15:03.114Z,34.53
2022-08-08T13:17:54.009Z,34.68
2022-08-08T13:20:21.981Z,35.72
2022-08-08T13:22:51.553Z,33.91
2022-08-08T13:25:28.131Z,33.35
2022-08-08T13:28:00.672Z,34.02
2022-08-08T13:30:30.076Z,33.46
2022-08-08T13:33:01.243Z,34.02
2022-08-08T13:35:38.745Z,33.83
2022-08-08T13:38:13.339Z,33.83
2022-08-08T13:40:44.976Z,33.87
2022-08-08T13:43:13.809Z,34.26
2022-08-08T13:45:47.541Z,33.44
2022-08-08T13:48:19.765Z,33.65
2022-08-08T13:51:24.611Z,33.99
2022-08-08T13:53:53.281Z,34.14
2022-08-08T13:56:41.618Z,33.66
2022-08-08T13:59:32.671Z,32.99
2022-08-08T14:02:12.339Z,33.28
2022-08-08T14:04:52.745Z,33.05
2022-08-08T14:07:22.474Z,33.94
2022-08-08T14:10:02.452Z,33.48
2022-08-08T14:12:39.172Z,33.62
2022-08-08T14:15:11.820Z,33.78
2022-08-08T14:17:59.141Z,33.04
2022-08-08T14:20:57.720Z,32.92
2022-08-08T14:24:04.639Z,33.09
2022-08-08T14:26:21.944Z,32.64
2022-08-08T14:28:54.859Z,31.66
2022-08-08T14:31:23.469Z,31.57
2022-08-08T14:34:22.861Z,31.89
2022-08-08T14:36:54.490Z,31.31
2022-08-08T14:39:24.854Z,30.99
2022-08-08T14:42:03.358Z,30.70
2022-08-08T14:44:39.195Z,31.04
2022-08-08T14:47:16.751Z,30.68
2022-08-08T14:50:02.491Z,30.21
2022-08-08T14:52:46.385Z,30.32
2022-08-08T14:55:14.637Z,29.86
2022-08-08T14:58:03.372Z,30.11
2022-08-08T15:00:35.244Z,29.92
2022-08-08T15:03:11.845Z,30.44
2022-08-08T15:05:54.486Z,29.94
2022-08-08T15:08:34.274Z,29.98
2022-08-08T15:11:04.605Z,30.07
2022-08-08T15:13:40.358Z,30.11
2022-08-08T15:16:20.842Z,29.41
2022-08-08T15:18:50.177Z,29.36
2022-08-08T15:21:21.165Z,29.70
2022-08-08T15:23:51.341Z,29.66
2022-08-08T15:26:20.471Z,29.75
2022-08-08T15:28:50.994Z,29.56
2022-08-08T15:31:56.270Z,29.56
2022-08-08T15:34:29.462Z,29.38
2022-08-08T15:37:02.119Z,29.57
2022-08-08T15:39:37.502Z,29.42
2022-08-08T15:42:13.449Z,29.26
2022-08-08T15:44:55.773Z,29.30
2022-08-08T15:47:24.337Z,28.97
2022-08-08T15:49:53.432Z,28.93
2022-08-08T15:52:24.884Z,28.93
2022-08-08T15:54:53.380Z,28.89
2022-08-08T15:57:23.071Z,28.67
2022-08-08T16:00:18.163Z,28.63
2022-08-08T16:02:50.478Z,28.76
2022-08-08T16:05:23.593Z,28.58
2022-08-08T16:07:54.398Z,28.81
2022-08-08T16:13:03.840Z,28.71
2022-08-08T16:13:27.273Z,28.83
2022-08-08T16:16:09.440Z,28.81
2022-08-08T16:18:57.037Z,28.77
2022-08-08T16:21:29.193Z,28.25
2022-08-08T16:24:00.151Z,28.32
2022-08-08T16:26:32.864Z,28.44
2022-08-08T16:29:08.201Z,28.52
2022-08-08T16:31:40.611Z,28.49
2022-08-08T16:34:08.871Z,28.44
2022-08-08T16:36:37.456Z,28.28
2022-08-08T16:39:16.607Z,28.59
2022-08-08T16:42:01.284Z,28.58
2022-08-08T16:44:33.928Z,28.61
2022-08-08T16:47:16.845Z,28.38
2022-08-08T16:49:47.654Z,28.08
2022-08-08T16:55:05.573Z,27.95
2022-08-08T16:55:28.063Z,27.58
2022-08-08T16:58:16.349Z,27.69
2022-08-08T17:00:49.123Z,27.54
2022-08-08T17:03:25.489Z,27.51
2022-08-08T17:06:36.363Z,27.69
2022-08-08T17:08:56.309Z,27.53
2022-08-08T17:11:28.449Z,27.54
2022-08-08T17:14:18.717Z,27.57
2022-08-08T17:16:57.645Z,27.41
2022-08-08T17:19:28.917Z,27.10
2022-08-08T17:22:01.418Z,27.26
2022-08-08T17:24:30.711Z,27.13
2022-08-08T17:27:02.053Z,27.21
2022-08-08T17:29:33.507Z,27.29
2022-08-08T17:32:04.183Z,27.37
2022-08-08T17:34:48.988Z,27.16
2022-08-08T17:37:20.668Z,26.90
2022-08-08T17:40:05.594Z,26.67
2022-08-08T17:42:39.332Z,26.66
2022-08-08T17:45:22.792Z,26.60
2022-08-08T17:47:51.538Z,26.56
2022-08-08T17:50:19.831Z,26.61
2022-08-08T17:52:48.017Z,26.51
2022-08-08T17:56:05.260Z,26.42
2022-08-08T17:58:05.184Z,26.32
2022-08-08T18:00:33.059Z,26.33
2022-08-08T18:03:08.564Z,26.40
2022-08-08T18:05:48.696Z,26.28
2022-08-08T18:08:37.678Z,26.33
2022-08-08T18:11:09.251Z,26.20
2022-08-08T18:13:42.263Z,26.11
2022-08-08T18:16:11.327Z,25.90
2022-08-08T18:18:45.290Z,25.97
2022-08-08T18:21:35.317Z,25.82
2022-08-08T18:24:17.682Z,25.71
2022-08-08T18:26:54.952Z,25.80
2022-08-08T18:29:30.064Z,25.72
2022-08-08T18:32:03.461Z,25.69
2022-08-08T18:34:33.230Z,25.72
2022-08-08T18:37:04.664Z,25.63
2022-08-08T18:39:34.711Z,25.58
2022-08-08T18:42:13.809Z,25.42
2022-08-08T18:44:54.844Z,25.41
2022-08-08T18:47:25.895Z,25.18
2022-08-08T18:49:58.935Z,25.23
2022-08-08T18:52:29.897Z,25.18
2022-08-08T18:54:59.418Z,25.11
2022-08-08T18:57:31.545Z,24.94
2022-08-08T19:00:01.422Z,24.91
2022-08-08T19:02:30.061Z,24.94
2022-08-08T19:04:58.031Z,24.89
2022-08-08T19:07:29.680Z,24.81
2022-08-08T19:10:13.624Z,24.65
2022-08-08T19:12:44.504Z,24.61
2022-08-08T19:15:23.954Z,24.54
2022-08-08T19:18:33.190Z,24.46
2022-08-08T19:20:50.841Z,24.21
2022-08-08T19:23:21.551Z,24.25
2022-08-08T19:26:01.420Z,24.19
2022-08-08T19:28:30.511Z,24.15
2022-08-08T19:31:03.755Z,24.09
2022-08-08T19:33:52.251Z,24.01
2022-08-08T19:36:27.646Z,23.93
2022-08-08T19:38:56.114Z,23.95
2022-08-08T19:41:29.110Z,23.80
2022-08-08T19:44:03.139Z,23.78
2022-08-08T19:46:33.930Z,23.78
2022-08-08T19:49:03.159Z,23.56
2022-08-08T19:51:34.760Z,23.55
2022-08-08T19:54:11.293Z,23.63
2022-08-08T19:56:41.505Z,23.56
2022-08-08T19:59:18.793Z,23.45
2022-08-08T20:02:01.314Z,23.48
2022-08-08T20:04:31.872Z,23.34
2022-08-08T20:07:05.337Z,23.26
2022-08-08T20:09:56.222Z,23.21
2022-08-08T20:12:31.939Z,23.20
2022-08-08T20:15:09.789Z,23.21
2022-08-08T20:17:47.273Z,23.17
2022-08-08T20:20:18.987Z,23.07
2022-08-08T20:22:54.177Z,23.06
2022-08-08T20:25:26.546Z,23.02
2022-08-08T20:28:03.422Z,22.92
2022-08-08T20:30:56.123Z,22.86
2022-08-08T20:35:57.238Z,22.94
2022-08-08T20:38:33.007Z,22.91
2022-08-08T20:41:05.840Z,22.84
2022-08-08T20:43:48.287Z,22.75
2022-08-08T20:46:20.316Z,22.72
2022-08-08T20:48:51.994Z,22.64
2022-08-08T20:51:20.779Z,22.54
2022-08-08T20:54:01.103Z,22.40
2022-08-08T20:56:35.231Z,22.29
2022-08-08T20:59:06.416Z,22.17
2022-08-08T21:01:44.345Z,22.13
2022-08-08T21:04:27.912Z,21.96
2022-08-08T21:06:56.131Z,21.94
2022-08-08T21:09:31.718Z,21.91
2022-08-08T21:12:12.710Z,21.73
2022-08-08T21:14:41.082Z,21.73
2022-08-08T21:17:16.894Z,21.68
2022-08-08T21:19:48.807Z,21.59
2022-08-08T21:22:16.740Z,21.61
2022-08-08T21:24:52.951Z,21.62
2022-08-08T21:27:38.602Z,21.59
2022-08-08T21:30:18.898Z,21.53
2022-08-08T21:32:51.200Z,21.38
2022-08-08T21:36:18.149Z,21.38
2022-08-08T21:38:17.215Z,21.25
2022-08-08T21:40:54.666Z,21.30
2022-08-08T21:43:23.208Z,21.29
2022-08-08T21:48:06.368Z,21.35
2022-08-08T21:48:41.208Z,21.15
2022-08-08T21:51:13.542Z,21.20
2022-08-08T21:54:33.580Z,21.22
2022-08-08T21:56:36.061Z,21.19
2022-08-08T21:59:10.699Z,21.08
2022-08-08T22:01:44.014Z,20.97
2022-08-08T22:04:20.591Z,20.85
2022-08-08T22:06:49.784Z,20.74
2022-08-08T22:09:17.590Z,20.66
2022-08-08T22:12:02.778Z,20.56
2022-08-08T22:14:35.393Z,20.45
2022-08-08T22:17:03.724Z,20.44
2022-08-08T22:20:10.914Z,20.43
2022-08-08T22:22:24.442Z,20.31
2022-08-08T22:24:57.079Z,20.29
2022-08-08T22:28:00.588Z,20.24
2022-08-08T22:30:14.718Z,20.17
2022-08-08T22:32:44.066Z,20.05
2022-08-08T22:35:18.212Z,19.94
2022-08-08T22:37:54.235Z,19.90
2022-08-08T22:40:23.173Z,19.80
2022-08-08T22:42:59.648Z,19.74
2022-08-08T22:45:27.964Z,19.65
2022-08-08T22:47:55.842Z,19.72
2022-08-08T22:50:26.113Z,19.69
2022-08-08T22:54:15.809Z,19.69
2022-08-08T22:55:57.923Z,19.62
2022-08-08T22:58:28.850Z,19.63
2022-08-08T23:00:59.989Z,19.67
2022-08-08T23:03:32.973Z,19.66
2022-08-08T23:06:17.624Z,19.61
2022-08-08T23:08:55.542Z,19.56
2022-08-08T23:11:30.856Z,19.52
2022-08-08T23:14:16.916Z,19.32
2022-08-08T23:16:47.202Z,19.22
2022-08-08T23:19:17.572Z,19.10
2022-08-08T23:21:45.805Z,18.99
2022-08-08T23:24:22.988Z,19.02
2022-08-08T23:26:53.110Z,18.93
2022-08-08T23:29:24.896Z,18.89
2022-08-08T23:31:53.277Z,18.84
2022-08-08T23:34:22.346Z,18.77
2022-08-08T23:36:56.847Z,18.68
2022-08-08T23:39:32.074Z,18.60
2022-08-08T23:42:09.803Z,18.54
2022-08-08T23:44:38.595Z,18.52
2022-08-08T23:49:00.410Z,18.49
2022-08-08T23:50:03.199Z,18.42
2022-08-08T23:52:33.988Z,18.37
2022-08-08T23:55:14.579Z,18.36
2022-08-08T23:57:52.370Z,18.33
